createdAt,value
2018-07-30T00:00:17.691Z,100.00
2018-07-30T00:02:47.578Z,100.00
2018-07-30T00:05:17.462Z,100.00
2018-07-30T00:07:47.235Z,100.00
2018-07-30T00:10:17.122Z,100.00
2018-07-30T00:12:47.292Z,100.00
2018-07-30T00:15:16.963Z,100.00
2018-07-30T00:17:47.288Z,100.00
2018-07-30T00:20:17.002Z,100.00
2018-07-30T00:22:46.834Z,100.00
2018-07-30T00:25:16.507Z,100.00
2018-07-30T00:27:46.313Z,100.00
2018-07-30T00:30:16.137Z,100.00
2018-07-30T00:32:45.977Z,100.00
2018-07-30T00:35:15.661Z,100.00
2018-07-30T00:37:45.480Z,100.00
2018-07-30T00:40:15.938Z,100.00
2018-07-30T00:42:48.381Z,100.00
2018-07-30T00:45:18.715Z,100.00
2018-07-30T00:47:48.571Z,100.00
2018-07-30T00:50:18.388Z,100.00
2018-07-30T00:52:48.160Z,100.00
2018-07-30T00:55:17.963Z,100.00
2018-07-30T00:57:47.767Z,100.00
2018-07-30T01:00:17.583Z,100.00
2018-07-30T01:02:47.321Z,100.00
2018-07-30T01:05:17.096Z,100.00
2018-07-30T01:07:46.901Z,100.00
2018-07-30T01:10:17.148Z,100.00
2018-07-30T01:12:47.248Z,100.00
2018-07-30T01:15:17.108Z,100.00
2018-07-30T01:17:46.931Z,100.00
2018-07-30T01:20:16.718Z,100.00
2018-07-30T01:22:46.540Z,100.00
2018-07-30T01:25:16.436Z,100.00
2018-07-30T01:27:46.162Z,100.00
2018-07-30T01:30:15.889Z,100.00
2018-07-30T01:32:46.027Z,100.00
2018-07-30T01:35:16.116Z,100.00
2018-07-30T01:37:45.945Z,100.00
2018-07-30T01:40:15.851Z,100.00
2018-07-30T01:42:45.658Z,100.00
2018-07-30T01:45:15.426Z,100.00
2018-07-30T01:47:45.282Z,100.00
2018-07-30T01:50:15.113Z,100.00
2018-07-30T01:52:45.168Z,100.00
2018-07-30T01:55:14.956Z,100.00
2018-07-30T01:57:44.791Z,100.00
2018-07-30T02:00:14.560Z,100.00
2018-07-30T02:02:44.708Z,100.00
2018-07-30T02:05:14.497Z,100.00
2018-07-30T02:07:44.338Z,100.00
2018-07-30T02:10:14.175Z,100.00
2018-07-30T02:12:43.923Z,100.00
2018-07-30T02:15:16.763Z,100.00
2018-07-30T02:17:46.541Z,100.00
2018-07-30T02:20:16.399Z,100.00
2018-07-30T02:22:46.195Z,100.00
2018-07-30T02:25:16.199Z,100.00
2018-07-30T02:27:45.972Z,100.00
2018-07-30T02:30:16.138Z,100.00
2018-07-30T02:32:46.352Z,100.00
2018-07-30T02:35:16.160Z,100.00
2018-07-30T02:37:45.973Z,100.00
2018-07-30T02:40:15.776Z,100.00
2018-07-30T02:42:45.596Z,100.00
2018-07-30T02:45:15.316Z,100.00
2018-07-30T02:47:45.517Z,100.00
2018-07-30T02:50:15.312Z,100.00
2018-07-30T02:52:45.136Z,100.00
2018-07-30T02:55:14.875Z,100.00
2018-07-30T02:57:44.694Z,100.00
2018-07-30T03:00:14.512Z,100.00
2018-07-30T03:02:44.283Z,100.00
2018-07-30T03:05:14.117Z,100.00
2018-07-30T03:07:43.908Z,100.00
2018-07-30T03:10:13.727Z,100.00
2018-07-30T03:12:43.571Z,100.00
2018-07-30T03:15:13.532Z,100.00
2018-07-30T03:17:43.676Z,100.00
2018-07-30T03:20:13.472Z,100.00
2018-07-30T03:22:43.327Z,100.00
2018-07-30T03:25:13.015Z,100.00
2018-07-30T03:27:42.803Z,100.00
2018-07-30T03:30:12.632Z,100.00
2018-07-30T03:32:42.444Z,100.00
2018-07-30T03:35:12.264Z,100.00
2018-07-30T03:37:42.128Z,100.00
2018-07-30T03:40:11.993Z,100.00
2018-07-30T03:42:41.838Z,100.00
2018-07-30T03:45:12.063Z,100.00
2018-07-30T03:47:41.861Z,100.00
2018-07-30T03:50:14.807Z,100.00
2018-07-30T03:52:45.791Z,100.00
2018-07-30T03:55:15.829Z,100.00
2018-07-30T03:57:45.560Z,100.00
2018-07-30T04:00:15.725Z,100.00
2018-07-30T04:02:45.596Z,100.00
2018-07-30T04:05:15.734Z,100.00
2018-07-30T04:07:45.499Z,100.00
2018-07-30T04:10:15.205Z,100.00
2018-07-30T04:12:45.141Z,100.00
2018-07-30T04:15:14.949Z,100.00
2018-07-30T04:17:44.639Z,100.00
2018-07-30T04:20:14.424Z,100.00
2018-07-30T04:22:44.195Z,100.00
2018-07-30T04:25:13.881Z,100.00
2018-07-30T04:27:43.690Z,100.00
2018-07-30T04:30:13.528Z,100.00
2018-07-30T04:32:43.330Z,100.00
2018-07-30T04:35:13.254Z,100.00
2018-07-30T04:37:43.085Z,100.00
2018-07-30T04:40:12.800Z,100.00
2018-07-30T04:42:42.708Z,100.00
2018-07-30T04:45:12.544Z,100.00
2018-07-30T04:47:42.380Z,100.00
2018-07-30T04:50:12.331Z,100.00
2018-07-30T04:52:42.062Z,100.00
2018-07-30T04:55:11.780Z,100.00
2018-07-30T04:57:41.581Z,100.00
2018-07-30T05:00:11.351Z,100.00
2018-07-30T05:02:41.597Z,100.00
2018-07-30T05:05:11.940Z,100.00
2018-07-30T05:07:41.747Z,100.00
2018-07-30T05:10:11.440Z,100.00
2018-07-30T05:12:41.277Z,100.00
2018-07-30T05:15:11.034Z,100.00
2018-07-30T05:17:41.496Z,100.00
2018-07-30T05:20:11.212Z,100.00
2018-07-30T05:22:41.056Z,100.00
2018-07-30T05:25:10.927Z,100.00
2018-07-30T05:27:40.739Z,100.00
2018-07-30T05:30:10.607Z,100.00
2018-07-30T05:32:40.739Z,100.00
2018-07-30T05:35:10.492Z,100.00
2018-07-30T05:37:40.224Z,100.00
2018-07-30T05:40:10.212Z,100.00
2018-07-30T05:42:40.106Z,100.00
2018-07-30T05:45:09.924Z,100.00
2018-07-30T05:47:39.747Z,99.25
2018-07-30T05:50:09.524Z,97.92
2018-07-30T05:52:39.362Z,98.05
2018-07-30T05:55:09.039Z,97.10
2018-07-30T05:57:39.043Z,96.55
2018-07-30T06:00:08.812Z,98.14
2018-07-30T06:02:38.541Z,97.20
2018-07-30T06:05:09.144Z,95.14
2018-07-30T06:07:38.951Z,98.40
2018-07-30T06:10:14.194Z,94.47
2018-07-30T06:12:43.951Z,94.79
2018-07-30T06:15:13.940Z,93.67
2018-07-30T06:17:43.720Z,94.86
2018-07-30T06:20:13.560Z,95.14
2018-07-30T06:22:43.323Z,93.41
2018-07-30T06:25:13.164Z,92.23
2018-07-30T06:27:43.327Z,89.66
2018-07-30T06:30:13.554Z,86.46
2018-07-30T06:32:43.348Z,85.75
2018-07-30T06:35:13.056Z,86.85
2018-07-30T06:37:42.771Z,85.96
2018-07-30T06:40:12.631Z,85.33
2018-07-30T06:42:42.549Z,86.71
2018-07-30T06:45:12.395Z,84.88
2018-07-30T06:47:42.394Z,83.92
2018-07-30T06:50:12.431Z,84.33
2018-07-30T06:52:42.251Z,80.95
2018-07-30T06:55:12.247Z,78.63
2018-07-30T06:57:42.254Z,81.36
2018-07-30T07:00:12.047Z,77.76
2018-07-30T07:02:42.236Z,86.01
2018-07-30T07:05:12.464Z,80.84
2018-07-30T07:07:42.281Z,76.44
2018-07-30T07:10:12.836Z,76.79
2018-07-30T07:12:42.581Z,78.57
2018-07-30T07:15:14.140Z,77.58
2018-07-30T07:17:44.850Z,74.74
2018-07-30T07:20:14.631Z,74.23
2018-07-30T07:22:44.372Z,72.47
2018-07-30T07:25:14.172Z,70.96
2018-07-30T07:27:43.969Z,64.79
2018-07-30T07:30:13.688Z,65.55
2018-07-30T07:32:43.656Z,64.85
2018-07-30T07:35:13.610Z,67.79
2018-07-30T07:37:43.459Z,68.14
2018-07-30T07:40:13.232Z,65.62
2018-07-30T07:42:43.065Z,65.79
2018-07-30T07:45:13.044Z,69.29
2018-07-30T07:47:42.949Z,72.62
2018-07-30T07:50:12.788Z,69.53
2018-07-30T07:52:42.464Z,68.31
2018-07-30T07:55:12.766Z,69.53
2018-07-30T07:57:42.819Z,71.92
2018-07-30T08:00:12.711Z,70.42
2018-07-30T08:02:42.477Z,72.09
2018-07-30T08:05:12.432Z,75.13
2018-07-30T08:07:42.163Z,72.58
2018-07-30T08:10:12.189Z,74.19
2018-07-30T08:12:41.967Z,80.23
2018-07-30T08:15:11.839Z,83.92
2018-07-30T08:17:41.760Z,83.70
2018-07-30T08:20:11.617Z,88.82
2018-07-30T08:22:41.568Z,93.28
2018-07-30T08:25:13.262Z,90.28
2018-07-30T08:27:43.659Z,94.74
2018-07-30T08:30:13.469Z,93.10
2018-07-30T08:32:43.576Z,93.52
2018-07-30T08:35:13.504Z,92.91
2018-07-30T08:37:43.294Z,88.01
2018-07-30T08:40:13.172Z,83.23
2018-07-30T08:42:43.336Z,78.92
2018-07-30T08:45:13.203Z,79.24
2018-07-30T08:47:42.972Z,77.50
2018-07-30T08:50:12.786Z,77.49
2018-07-30T08:52:42.497Z,78.47
2018-07-30T08:55:12.172Z,75.59
2018-07-30T08:57:42.094Z,76.12
2018-07-30T09:00:11.985Z,75.08
2018-07-30T09:02:41.722Z,75.89
2018-07-30T09:05:12.435Z,79.49
2018-07-30T09:07:42.236Z,76.42
2018-07-30T09:10:12.004Z,80.51
2018-07-30T09:12:43.154Z,84.32
2018-07-30T09:15:13.235Z,82.76
2018-07-30T09:17:43.129Z,79.15
2018-07-30T09:20:12.793Z,76.22
2018-07-30T09:22:42.576Z,76.48
2018-07-30T09:25:12.356Z,79.17
2018-07-30T09:27:42.192Z,77.61
2018-07-30T09:30:11.992Z,77.30
2018-07-30T09:32:41.814Z,77.88
2018-07-30T09:35:11.686Z,80.68
2018-07-30T09:37:41.805Z,81.04
2018-07-30T09:40:12.368Z,83.12
2018-07-30T09:42:42.278Z,86.81
2018-07-30T09:45:12.110Z,82.81
2018-07-30T09:47:41.907Z,81.56
2018-07-30T09:50:11.589Z,80.94
2018-07-30T09:52:41.496Z,75.28
2018-07-30T09:55:11.392Z,78.41
2018-07-30T09:57:41.187Z,76.66
2018-07-30T10:00:11.329Z,74.60
2018-07-30T10:02:41.121Z,76.41
2018-07-30T10:05:10.901Z,76.75
2018-07-30T10:07:40.700Z,79.17
2018-07-30T10:10:10.428Z,76.93
2018-07-30T10:12:40.211Z,81.68
2018-07-30T10:15:10.055Z,80.60
2018-07-30T10:17:39.880Z,80.74
2018-07-30T10:20:10.329Z,81.31
2018-07-30T10:22:40.024Z,81.58
2018-07-30T10:25:10.645Z,79.64
2018-07-30T10:27:40.776Z,76.19
2018-07-30T10:30:10.456Z,76.23
2018-07-30T10:32:40.257Z,76.42
2018-07-30T10:35:09.948Z,73.64
2018-07-30T10:37:39.994Z,76.44
2018-07-30T10:40:10.106Z,76.90
2018-07-30T10:42:39.995Z,78.28
2018-07-30T10:45:10.113Z,74.46
2018-07-30T10:47:40.215Z,76.76
2018-07-30T10:50:10.183Z,73.17
2018-07-30T10:52:40.188Z,72.18
2018-07-30T10:55:09.976Z,73.29
2018-07-30T10:57:39.771Z,73.73
2018-07-30T11:00:09.889Z,71.43
2018-07-30T11:02:39.958Z,74.49
2018-07-30T11:05:09.707Z,75.35
2018-07-30T11:07:39.501Z,71.64
2018-07-30T11:10:09.308Z,72.13
2018-07-30T11:12:39.091Z,76.77
2018-07-30T11:15:08.756Z,73.06
2018-07-30T11:17:38.964Z,73.32
2018-07-30T11:20:08.825Z,75.90
2018-07-30T11:22:38.618Z,74.82
2018-07-30T11:25:08.904Z,72.39
2018-07-30T11:27:38.979Z,71.08
2018-07-30T11:30:08.835Z,71.49
2018-07-30T11:32:38.867Z,74.74
2018-07-30T11:35:08.797Z,72.08
2018-07-30T11:37:38.508Z,73.17
2018-07-30T11:40:08.272Z,74.61
2018-07-30T11:42:37.988Z,73.82
2018-07-30T11:45:07.834Z,76.14
2018-07-30T11:47:37.525Z,77.75
2018-07-30T11:50:07.336Z,75.61
2018-07-30T11:52:37.183Z,74.88
2018-07-30T11:55:07.065Z,77.87
2018-07-30T11:57:36.789Z,76.60
2018-07-30T12:00:07.304Z,75.76
2018-07-30T12:02:37.425Z,78.35
2018-07-30T12:05:07.505Z,76.79
2018-07-30T12:07:37.314Z,75.86
2018-07-30T12:10:07.519Z,76.79
2018-07-30T12:12:37.239Z,73.51
2018-07-30T12:15:07.221Z,73.06
2018-07-30T12:17:37.496Z,72.27
2018-07-30T12:20:07.747Z,69.58
2018-07-30T12:22:37.534Z,70.42
2018-07-30T12:25:07.365Z,69.75
2018-07-30T12:27:37.356Z,70.19
2018-07-30T12:30:08.006Z,68.07
2018-07-30T12:32:38.037Z,68.93
2018-07-30T12:35:07.792Z,70.29
2018-07-30T12:37:37.459Z,68.02
2018-07-30T12:40:07.214Z,69.01
2018-07-30T12:42:37.386Z,71.02
2018-07-30T12:45:07.266Z,71.40
2018-07-30T12:47:37.434Z,71.19
2018-07-30T12:50:07.322Z,70.55
2018-07-30T12:52:37.421Z,72.24
2018-07-30T12:55:07.503Z,69.72
2018-07-30T12:57:37.274Z,70.92
2018-07-30T13:00:07.316Z,71.90
2018-07-30T13:02:37.129Z,72.77
2018-07-30T13:05:07.120Z,72.32
2018-07-30T13:07:37.284Z,70.16
2018-07-30T13:10:07.086Z,70.19
2018-07-30T13:12:37.204Z,69.82
2018-07-30T13:15:07.356Z,68.97
2018-07-30T13:17:37.212Z,69.01
2018-07-30T13:20:06.995Z,67.60
2018-07-30T13:22:37.229Z,69.82
2018-07-30T13:25:07.332Z,69.18
2018-07-30T13:27:37.763Z,71.54
2018-07-30T13:30:08.579Z,69.79
2018-07-30T13:32:38.836Z,73.57
2018-07-30T13:35:08.968Z,68.23
2018-07-30T13:37:38.727Z,65.77
2018-07-30T13:40:08.557Z,65.82
2018-07-30T13:42:38.492Z,65.16
2018-07-30T13:45:08.277Z,67.56
2018-07-30T13:47:38.333Z,64.14
2018-07-30T13:50:10.206Z,64.09
2018-07-30T13:52:40.095Z,66.00
2018-07-30T13:55:10.372Z,65.37
2018-07-30T13:57:40.132Z,64.50
2018-07-30T14:00:11.252Z,63.96
2018-07-30T14:02:41.252Z,65.35
2018-07-30T14:05:11.696Z,67.41
2018-07-30T14:07:41.614Z,69.17
2018-07-30T14:10:11.667Z,73.25
2018-07-30T14:12:41.876Z,74.63
2018-07-30T14:15:11.751Z,76.50
2018-07-30T14:17:41.443Z,77.16
2018-07-30T14:20:11.279Z,76.31
2018-07-30T14:22:41.402Z,78.98
2018-07-30T14:25:11.183Z,82.86
2018-07-30T14:27:40.981Z,80.08
2018-07-30T14:30:11.233Z,75.70
2018-07-30T14:32:41.032Z,78.31
2018-07-30T14:35:10.708Z,79.21
2018-07-30T14:37:40.569Z,77.99
2018-07-30T14:40:12.535Z,78.08
2018-07-30T14:42:42.749Z,82.16
2018-07-30T14:45:12.637Z,78.86
2018-07-30T14:47:42.636Z,79.51
2018-07-30T14:50:12.964Z,76.73
2018-07-30T14:52:43.052Z,74.29
2018-07-30T14:55:12.892Z,74.38
2018-07-30T14:57:43.171Z,74.40
2018-07-30T15:00:13.024Z,74.86
2018-07-30T15:02:43.596Z,73.37
2018-07-30T15:05:18.234Z,70.00
2018-07-30T15:07:48.693Z,63.83
2018-07-30T15:10:18.589Z,62.00
2018-07-30T15:12:48.641Z,61.76
2018-07-30T15:15:18.847Z,64.97
2018-07-30T15:17:48.887Z,60.72
2018-07-30T15:20:19.188Z,59.87
2018-07-30T15:22:49.354Z,59.99
2018-07-30T15:25:19.328Z,69.00
2018-07-30T15:27:49.333Z,71.94
2018-07-30T15:30:19.532Z,76.09
2018-07-30T15:32:49.543Z,80.53
2018-07-30T15:35:19.969Z,81.16
2018-07-30T15:37:50.432Z,83.87
2018-07-30T15:40:20.452Z,83.81
2018-07-30T15:42:50.476Z,85.25
2018-07-30T15:45:20.483Z,87.56
2018-07-30T15:47:50.518Z,87.55
2018-07-30T15:50:20.538Z,87.37
2018-07-30T15:52:50.824Z,87.48
2018-07-30T15:55:21.016Z,88.10
2018-07-30T15:57:51.017Z,87.00
2018-07-30T16:00:21.034Z,85.71
2018-07-30T16:02:51.550Z,87.58
2018-07-30T16:05:22.063Z,87.72
2018-07-30T16:07:52.660Z,87.81
2018-07-30T16:10:22.758Z,88.01
2018-07-30T16:12:52.824Z,88.86
2018-07-30T16:15:23.816Z,88.00
2018-07-30T16:17:53.873Z,90.45
2018-07-30T16:20:23.882Z,87.05
2018-07-30T16:22:53.823Z,86.58
2018-07-30T16:25:23.771Z,86.48
2018-07-30T16:27:53.716Z,87.60
2018-07-30T16:30:23.636Z,86.44
2018-07-30T16:32:53.911Z,88.66
2018-07-30T16:35:23.811Z,86.70
2018-07-30T16:37:54.051Z,86.43
2018-07-30T16:40:24.238Z,84.62
2018-07-30T16:42:54.537Z,84.17
2018-07-30T16:45:25.737Z,85.29
2018-07-30T16:47:56.699Z,86.27
2018-07-30T16:50:27.112Z,88.41
2018-07-30T16:52:57.027Z,87.35
2018-07-30T16:55:26.735Z,90.76
2018-07-30T16:57:56.909Z,92.29
2018-07-30T17:00:26.865Z,93.50
2018-07-30T17:02:57.512Z,91.29
2018-07-30T17:05:27.857Z,90.93
2018-07-30T17:07:58.170Z,89.32
2018-07-30T17:10:28.237Z,91.13
2018-07-30T17:12:58.532Z,92.26
2018-07-30T17:15:28.699Z,90.43
2018-07-30T17:17:58.796Z,90.79
2018-07-30T17:20:28.968Z,91.08
2018-07-30T17:22:59.068Z,90.92
2018-07-30T17:25:29.140Z,91.71
2018-07-30T17:28:00.207Z,92.69
2018-07-30T17:30:30.129Z,92.47
2018-07-30T17:33:00.236Z,96.36
2018-07-30T17:35:30.268Z,93.87
2018-07-30T17:38:00.217Z,92.99
2018-07-30T17:40:30.165Z,92.43
2018-07-30T17:43:00.183Z,91.08
2018-07-30T17:45:30.737Z,92.40
2018-07-30T17:48:01.112Z,94.87
2018-07-30T17:50:31.164Z,97.13
2018-07-30T17:53:01.108Z,98.29
2018-07-30T17:55:31.088Z,98.52
2018-07-30T17:58:01.120Z,96.77
2018-07-30T18:00:31.508Z,97.32
2018-07-30T18:03:03.184Z,97.12
2018-07-30T18:05:34.157Z,98.28
2018-07-30T18:08:04.137Z,98.29
2018-07-30T18:10:34.517Z,96.77
2018-07-30T18:13:05.529Z,95.64
2018-07-30T18:15:35.760Z,96.73
2018-07-30T18:18:05.663Z,95.81
2018-07-30T18:20:36.708Z,95.66
2018-07-30T18:23:06.621Z,95.45
2018-07-30T18:25:36.767Z,96.07
2018-07-30T18:28:06.917Z,96.94
2018-07-30T18:30:37.248Z,96.75
2018-07-30T18:33:07.633Z,97.95
2018-07-30T18:35:37.872Z,99.43
2018-07-30T18:38:08.149Z,97.03
2018-07-30T18:40:38.566Z,94.63
2018-07-30T18:43:08.845Z,96.13
2018-07-30T18:45:39.042Z,93.72
2018-07-30T18:48:09.141Z,94.62
2018-07-30T18:50:39.309Z,94.03
2018-07-30T18:53:09.400Z,95.32
2018-07-30T18:55:39.247Z,94.43
2018-07-30T18:58:09.637Z,94.39
2018-07-30T19:00:39.850Z,93.70
2018-07-30T19:03:10.004Z,94.39
2018-07-30T19:05:40.183Z,93.82
2018-07-30T19:08:11.391Z,97.67
2018-07-30T19:10:42.701Z,99.63
2018-07-30T19:13:12.739Z,100.00
2018-07-30T19:15:42.867Z,100.00
2018-07-30T19:18:13.121Z,100.00
2018-07-30T19:20:43.268Z,100.00
2018-07-30T19:23:13.653Z,100.00
2018-07-30T19:25:43.771Z,100.00
2018-07-30T19:28:14.177Z,100.00
2018-07-30T19:30:44.305Z,100.00
2018-07-30T19:33:14.569Z,100.00
2018-07-30T19:35:45.024Z,100.00
2018-07-30T19:38:15.565Z,100.00
2018-07-30T19:40:45.676Z,100.00
2018-07-30T19:43:15.641Z,100.00
2018-07-30T19:45:45.820Z,100.00
2018-07-30T19:48:15.872Z,100.00
2018-07-30T19:50:45.804Z,100.00
2018-07-30T19:53:15.667Z,100.00
2018-07-30T19:55:45.432Z,100.00
2018-07-30T19:58:15.620Z,100.00
2018-07-30T20:00:45.391Z,100.00
2018-07-30T20:03:15.423Z,100.00
2018-07-30T20:05:45.458Z,100.00
2018-07-30T20:08:15.628Z,100.00
2018-07-30T20:10:45.637Z,100.00
2018-07-30T20:13:15.567Z,100.00
2018-07-30T20:15:45.818Z,100.00
2018-07-30T20:18:15.730Z,100.00
2018-07-30T20:20:45.700Z,100.00
2018-07-30T20:23:15.750Z,100.00
2018-07-30T20:25:45.928Z,100.00
2018-07-30T20:28:16.029Z,100.00
2018-07-30T20:30:46.060Z,100.00
2018-07-30T20:33:16.029Z,100.00
2018-07-30T20:35:45.926Z,100.00
2018-07-30T20:38:15.869Z,100.00
2018-07-30T20:40:45.743Z,100.00
2018-07-30T20:43:15.699Z,100.00
2018-07-30T20:45:45.602Z,100.00
2018-07-30T20:48:15.868Z,100.00
2018-07-30T20:50:46.164Z,100.00
2018-07-30T20:53:16.075Z,100.00
2018-07-30T20:55:46.236Z,100.00
2018-07-30T20:58:16.544Z,100.00
2018-07-30T21:00:46.524Z,100.00
2018-07-30T21:03:16.545Z,100.00
2018-07-30T21:05:47.469Z,100.00
2018-07-30T21:08:17.685Z,100.00
2018-07-30T21:10:47.592Z,100.00
2018-07-30T21:13:17.834Z,100.00
2018-07-30T21:15:47.816Z,100.00
2018-07-30T21:18:17.740Z,100.00
2018-07-30T21:20:47.892Z,100.00
2018-07-30T21:23:18.174Z,100.00
2018-07-30T21:25:48.490Z,100.00
2018-07-30T21:28:18.994Z,100.00
2018-07-30T21:30:48.914Z,100.00
2018-07-30T21:33:19.112Z,100.00
2018-07-30T21:35:49.324Z,100.00
2018-07-30T21:38:19.235Z,100.00
2018-07-30T21:40:49.236Z,100.00
2018-07-30T21:43:19.072Z,100.00
2018-07-30T21:45:49.152Z,100.00
2018-07-30T21:48:19.213Z,100.00
2018-07-30T21:50:49.253Z,100.00
2018-07-30T21:53:19.139Z,100.00
2018-07-30T21:55:48.985Z,100.00
2018-07-30T21:58:19.057Z,100.00
2018-07-30T22:00:54.076Z,100.00
2018-07-30T22:03:24.257Z,100.00
2018-07-30T22:05:56.235Z,100.00
2018-07-30T22:08:26.533Z,100.00
2018-07-30T22:10:56.448Z,100.00
2018-07-30T22:13:26.432Z,100.00
2018-07-30T22:15:56.588Z,100.00
2018-07-30T22:18:26.728Z,100.00
2018-07-30T22:20:56.726Z,100.00
2018-07-30T22:23:26.676Z,100.00
2018-07-30T22:25:56.495Z,100.00
2018-07-30T22:28:26.482Z,100.00
2018-07-30T22:30:56.359Z,100.00
2018-07-30T22:33:26.575Z,100.00
2018-07-30T22:35:56.592Z,100.00
2018-07-30T22:38:26.556Z,100.00
2018-07-30T22:40:56.490Z,100.00
2018-07-30T22:43:26.478Z,100.00
2018-07-30T22:45:56.396Z,100.00
2018-07-30T22:48:26.563Z,100.00
2018-07-30T22:50:56.453Z,100.00
2018-07-30T22:53:26.460Z,100.00
2018-07-30T22:55:56.186Z,100.00
2018-07-30T22:58:26.240Z,100.00
2018-07-30T23:00:56.172Z,100.00
2018-07-30T23:03:26.141Z,100.00
2018-07-30T23:05:56.654Z,100.00
2018-07-30T23:08:26.951Z,100.00
2018-07-30T23:10:57.121Z,100.00
2018-07-30T23:13:27.233Z,100.00
2018-07-30T23:15:57.091Z,100.00
2018-07-30T23:18:27.136Z,100.00
2018-07-30T23:20:57.078Z,100.00
2018-07-30T23:23:27.152Z,100.00
2018-07-30T23:25:58.126Z,100.00
2018-07-30T23:28:28.020Z,100.00
2018-07-30T23:30:58.025Z,100.00
2018-07-30T23:33:28.299Z,100.00
2018-07-30T23:35:58.308Z,100.00
2018-07-30T23:38:28.472Z,100.00
2018-07-30T23:40:58.663Z,100.00
2018-07-30T23:43:28.619Z,100.00
2018-07-30T23:45:58.471Z,100.00
2018-07-30T23:48:28.556Z,100.00
2018-07-30T23:50:58.388Z,100.00
2018-07-30T23:53:28.495Z,100.00
2018-07-30T23:55:58.665Z,100.00
2018-07-30T23:58:28.766Z,100.00
